createdAt,value
2017-03-01T00:00:31.752Z,989.79
2017-03-01T00:01:12.191Z,989.8
2017-03-01T00:01:52.721Z,989.82
2017-03-01T00:02:33.265Z,989.79
2017-03-01T00:03:13.702Z,989.76
2017-03-01T00:03:55.004Z,989.78
2017-03-01T00:04:34.668Z,989.74
2017-03-01T00:05:15.203Z,989.78
2017-03-01T00:05:55.830Z,989.74
2017-03-01T00:06:36.321Z,989.77
2017-03-01T00:07:16.820Z,989.78
2017-03-01T00:07:57.270Z,989.68
2017-03-01T00:08:37.774Z,989.64
2017-03-01T00:09:18.364Z,989.65
2017-03-01T00:09:58.869Z,989.75
2017-03-01T00:10:39.335Z,989.73
2017-03-01T00:11:19.833Z,989.69
2017-03-01T00:12:00.364Z,989.72
2017-03-01T00:12:40.865Z,989.68
2017-03-01T00:13:21.363Z,989.72
2017-03-01T00:14:01.902Z,989.64
2017-03-01T00:14:42.424Z,989.69
2017-03-01T00:15:22.880Z,989.65
2017-03-01T00:16:03.616Z,989.65
2017-03-01T00:16:44.169Z,989.59
2017-03-01T00:17:24.642Z,989.54
2017-03-01T00:18:05.153Z,989.5
2017-03-01T00:18:45.662Z,989.54
2017-03-01T00:19:26.140Z,989.43
2017-03-01T00:20:06.643Z,989.48
2017-03-01T00:20:47.185Z,989.51
2017-03-01T00:21:27.660Z,989.46
2017-03-01T00:22:08.161Z,989.48
2017-03-01T00:22:48.630Z,989.44
2017-03-01T00:23:29.153Z,989.46
2017-03-01T00:24:09.606Z,989.51
2017-03-01T00:24:50.101Z,989.5
2017-03-01T00:25:30.585Z,989.52
2017-03-01T00:26:11.593Z,989.54
2017-03-01T00:26:52.039Z,989.5
2017-03-01T00:27:32.572Z,989.49
2017-03-01T00:28:13.054Z,989.56
2017-03-01T00:28:53.573Z,989.44
2017-03-01T00:29:34.116Z,989.42
2017-03-01T00:30:14.576Z,989.44
2017-03-01T00:30:55.060Z,989.46
2017-03-01T00:31:35.515Z,989.43
2017-03-01T00:32:16.113Z,989.45
2017-03-01T00:32:56.620Z,989.46
2017-03-01T00:33:37.153Z,989.35
2017-03-01T00:34:17.577Z,989.43
2017-03-01T00:34:58.057Z,989.39
2017-03-01T00:35:38.542Z,989.46
2017-03-01T00:36:19.085Z,989.42
2017-03-01T00:36:59.764Z,989.39
2017-03-01T00:37:40.275Z,989.38
2017-03-01T00:38:20.883Z,989.41
2017-03-01T00:39:01.393Z,989.41
2017-03-01T00:39:41.915Z,989.39
2017-03-01T00:40:22.466Z,989.38
2017-03-01T00:41:02.953Z,989.36
2017-03-01T00:41:43.448Z,989.32
2017-03-01T00:42:23.925Z,989.36
2017-03-01T00:43:04.531Z,989.32
2017-03-01T00:43:45.014Z,989.25
2017-03-01T00:44:25.517Z,989.27
2017-03-01T00:45:06.012Z,989.32
2017-03-01T00:45:46.465Z,989.32
2017-03-01T00:46:26.975Z,989.3
2017-03-01T00:47:07.512Z,989.34
2017-03-01T00:47:48.162Z,989.28
2017-03-01T00:48:28.569Z,989.24
2017-03-01T00:49:09.042Z,989.26
2017-03-01T00:49:49.645Z,989.22
2017-03-01T00:50:30.095Z,989.11
2017-03-01T00:51:10.606Z,989.19
2017-03-01T00:51:51.097Z,989.24
2017-03-01T00:52:31.588Z,989.25
2017-03-01T00:53:12.083Z,989.24
2017-03-01T00:53:52.562Z,989.22
2017-03-01T00:54:33.062Z,989.25
2017-03-01T00:55:13.552Z,989.26
2017-03-01T00:55:53.994Z,989.25
2017-03-01T00:56:34.492Z,989.23
2017-03-01T00:57:14.983Z,989.15
2017-03-01T00:57:56.096Z,989.17
2017-03-01T00:58:36.581Z,989.11
2017-03-01T00:59:17.057Z,989.14
2017-03-01T00:59:57.571Z,989.03
2017-03-01T01:00:38.088Z,989.07
2017-03-01T01:01:18.606Z,989.09
2017-03-01T01:01:59.038Z,989.04
2017-03-01T01:02:39.556Z,989.11
2017-03-01T01:03:20.150Z,989.16
2017-03-01T01:04:00.701Z,989.13
2017-03-01T01:04:41.140Z,989.14
2017-03-01T01:05:21.622Z,989.12
2017-03-01T01:06:02.083Z,989.04
2017-03-01T01:06:42.631Z,989.14
2017-03-01T01:07:23.112Z,989.06
2017-03-01T01:08:03.997Z,989.07
2017-03-01T01:08:44.467Z,989.05
2017-03-01T01:09:24.994Z,989.04
2017-03-01T01:10:05.476Z,989.03
2017-03-01T01:10:45.926Z,988.94
2017-03-01T01:11:26.391Z,988.99
2017-03-01T01:12:06.979Z,989.04
2017-03-01T01:12:47.536Z,989.06
2017-03-01T01:13:28.030Z,989.05
2017-03-01T01:14:08.590Z,989.09
2017-03-01T01:14:49.008Z,989.12
2017-03-01T01:15:29.552Z,989.2
2017-03-01T01:16:10.009Z,989.19
2017-03-01T01:16:50.476Z,989.12
2017-03-01T01:17:30.966Z,989.11
2017-03-01T01:18:11.462Z,989.21
2017-03-01T01:18:51.991Z,989.1
2017-03-01T01:19:32.464Z,989.15
2017-03-01T01:20:12.996Z,989.05
2017-03-01T01:20:53.532Z,989.11
2017-03-01T01:21:33.984Z,989.07
2017-03-01T01:22:14.459Z,989.11
2017-03-01T01:22:55.053Z,989.12
2017-03-01T01:23:35.515Z,989.07
2017-03-01T01:24:16.057Z,989.12
2017-03-01T01:24:56.599Z,989.06
2017-03-01T01:25:37.060Z,989.14
2017-03-01T01:26:17.605Z,989.12
2017-03-01T01:26:58.047Z,989.21
2017-03-01T01:27:38.982Z,989.2
2017-03-01T01:28:19.456Z,989.18
2017-03-01T01:28:59.989Z,989.2
2017-03-01T01:29:40.462Z,989.23
2017-03-01T01:30:20.948Z,989.22
2017-03-01T01:31:01.446Z,989.16
2017-03-01T01:31:41.952Z,989.25
2017-03-01T01:32:22.366Z,989.22
2017-03-01T01:33:02.865Z,989.25
2017-03-01T01:33:43.368Z,989.16
2017-03-01T01:34:23.875Z,989.13
2017-03-01T01:35:04.365Z,989.24
2017-03-01T01:35:44.916Z,989.18
2017-03-01T01:36:25.363Z,989.19
2017-03-01T01:37:05.864Z,989.24
2017-03-01T01:37:46.313Z,989.15
2017-03-01T01:38:27.812Z,989.28
2017-03-01T01:39:08.283Z,989.18
2017-03-01T01:39:48.820Z,989.2
2017-03-01T01:40:29.306Z,989.23
2017-03-01T01:41:09.802Z,989.24
2017-03-01T01:41:50.278Z,989.28
2017-03-01T01:42:30.768Z,989.2
2017-03-01T01:43:11.230Z,989.2
2017-03-01T01:43:51.749Z,989.29
2017-03-01T01:44:32.241Z,989.26
2017-03-01T01:45:12.739Z,989.28
2017-03-01T01:45:53.163Z,989.28
2017-03-01T01:46:34.517Z,989.25
2017-03-01T01:47:14.230Z,989.31
2017-03-01T01:47:54.717Z,989.32
2017-03-01T01:48:35.243Z,989.3
2017-03-01T01:49:15.752Z,989.37
2017-03-01T01:49:56.189Z,989.25
2017-03-01T01:50:36.677Z,989.25
2017-03-01T01:51:17.151Z,989.28
2017-03-01T01:51:57.657Z,989.24
2017-03-01T01:52:38.152Z,989.31
2017-03-01T01:53:18.613Z,989.23
2017-03-01T01:53:59.405Z,989.31
2017-03-01T01:54:39.853Z,989.35
2017-03-01T01:55:20.416Z,989.37
2017-03-01T01:56:00.902Z,989.29
2017-03-01T01:56:41.414Z,989.4
2017-03-01T01:57:21.854Z,989.32
2017-03-01T01:58:02.317Z,989.34
2017-03-01T01:58:42.819Z,989.22
2017-03-01T01:59:23.320Z,989.35
2017-03-01T02:00:03.858Z,989.26
2017-03-01T02:00:44.359Z,989.29
2017-03-01T02:01:24.901Z,989.39
2017-03-01T02:02:05.358Z,989.38
2017-03-01T02:02:45.829Z,989.47
2017-03-01T02:03:26.289Z,989.44
2017-03-01T02:04:06.789Z,989.48
2017-03-01T02:04:47.349Z,989.55
2017-03-01T02:05:27.863Z,989.4
2017-03-01T02:06:08.347Z,989.58
2017-03-01T02:06:48.771Z,989.45
2017-03-01T02:07:29.317Z,989.57
2017-03-01T02:08:09.801Z,989.52
2017-03-01T02:08:50.268Z,989.47
2017-03-01T02:09:30.745Z,989.5
2017-03-01T02:10:11.405Z,989.59
2017-03-01T02:10:51.924Z,989.49
2017-03-01T02:11:32.427Z,989.58
2017-03-01T02:12:12.884Z,989.66
2017-03-01T02:12:53.346Z,989.63
2017-03-01T02:13:33.872Z,989.61
2017-03-01T02:14:14.315Z,989.66
2017-03-01T02:14:54.826Z,989.62
2017-03-01T02:15:35.388Z,989.65
2017-03-01T02:16:15.857Z,989.64
2017-03-01T02:16:56.366Z,989.54
2017-03-01T02:17:36.854Z,989.64
2017-03-01T02:18:17.331Z,989.6
2017-03-01T02:18:57.815Z,989.74
2017-03-01T02:19:38.323Z,989.77
2017-03-01T02:20:18.775Z,989.61
2017-03-01T02:20:59.278Z,989.73
2017-03-01T02:21:39.809Z,989.72
2017-03-01T02:22:20.263Z,989.64
2017-03-01T02:23:00.760Z,989.75
2017-03-01T02:23:41.224Z,989.8
2017-03-01T02:24:21.990Z,989.79
2017-03-01T02:25:02.287Z,989.78
2017-03-01T02:25:42.753Z,989.69
2017-03-01T02:26:23.293Z,989.77
2017-03-01T02:27:03.774Z,989.73
2017-03-01T02:27:44.241Z,989.69
2017-03-01T02:28:24.707Z,989.65
2017-03-01T02:29:05.282Z,989.75
2017-03-01T02:29:45.737Z,989.63
2017-03-01T02:30:26.245Z,989.75
2017-03-01T02:31:06.693Z,989.76
2017-03-01T02:31:47.186Z,989.71
2017-03-01T02:32:27.702Z,989.72
2017-03-01T02:33:08.192Z,989.73
2017-03-01T02:33:48.640Z,989.65
2017-03-01T02:34:29.203Z,989.67
2017-03-01T02:35:09.672Z,989.64
2017-03-01T02:35:50.119Z,989.66
2017-03-01T02:36:30.622Z,989.7
2017-03-01T02:37:11.118Z,989.75
2017-03-01T02:37:51.587Z,989.75
2017-03-01T02:38:32.081Z,989.8
2017-03-01T02:39:12.536Z,989.71
2017-03-01T02:39:53.045Z,989.74
2017-03-01T02:40:33.566Z,989.8
2017-03-01T02:41:14.032Z,989.77
2017-03-01T02:41:54.569Z,989.71
2017-03-01T02:42:35.015Z,989.7
2017-03-01T02:43:15.531Z,989.67
2017-03-01T02:43:56.019Z,989.63
2017-03-01T02:44:36.607Z,989.72
2017-03-01T02:45:16.981Z,989.7
2017-03-01T02:45:57.511Z,989.77
2017-03-01T02:46:38.006Z,989.74
2017-03-01T02:47:18.470Z,989.75
2017-03-01T02:47:58.976Z,989.73
2017-03-01T02:48:39.477Z,989.69
2017-03-01T02:49:19.976Z,989.67
2017-03-01T02:50:00.622Z,989.72
2017-03-01T02:50:41.091Z,989.72
2017-03-01T02:51:21.634Z,989.78
2017-03-01T02:52:02.122Z,989.83
2017-03-01T02:52:42.614Z,989.79
2017-03-01T02:53:23.107Z,989.7
2017-03-01T02:54:03.601Z,989.83
2017-03-01T02:54:44.200Z,989.8
2017-03-01T02:55:24.800Z,989.81
2017-03-01T02:56:05.361Z,989.75
2017-03-01T02:56:45.827Z,989.77
2017-03-01T02:57:26.322Z,989.72
2017-03-01T02:58:06.858Z,989.69
2017-03-01T02:58:47.360Z,989.79
2017-03-01T02:59:27.800Z,989.74
2017-03-01T03:00:08.341Z,989.76
2017-03-01T03:00:48.832Z,989.65
2017-03-01T03:01:29.345Z,989.61
2017-03-01T03:02:09.814Z,989.73
2017-03-01T03:02:50.253Z,989.76
2017-03-01T03:03:30.788Z,989.75
2017-03-01T03:04:11.277Z,989.75
2017-03-01T03:04:51.757Z,989.78
2017-03-01T03:05:32.237Z,989.74
2017-03-01T03:06:12.795Z,989.8
2017-03-01T03:06:53.255Z,989.71
2017-03-01T03:07:33.731Z,989.75
2017-03-01T03:08:14.259Z,989.72
2017-03-01T03:08:54.692Z,989.77
2017-03-01T03:09:35.163Z,989.75
2017-03-01T03:10:15.646Z,989.73
2017-03-01T03:10:56.167Z,989.72
2017-03-01T03:11:36.698Z,989.79
2017-03-01T03:12:17.186Z,989.8
2017-03-01T03:12:57.705Z,989.8
2017-03-01T03:13:38.104Z,989.82
2017-03-01T03:14:18.621Z,989.8
2017-03-01T03:14:59.146Z,989.84
2017-03-01T03:15:39.592Z,989.85
2017-03-01T03:16:20.085Z,989.87
2017-03-01T03:17:00.559Z,989.86
2017-03-01T03:17:41.112Z,989.88
2017-03-01T03:18:21.613Z,989.94
2017-03-01T03:19:02.101Z,990.01
2017-03-01T03:19:42.552Z,989.96
2017-03-01T03:20:23.056Z,990.05
2017-03-01T03:21:03.613Z,990.05
2017-03-01T03:21:44.088Z,989.98
2017-03-01T03:22:24.631Z,990.04
2017-03-01T03:23:05.120Z,990.06
2017-03-01T03:23:45.680Z,989.99
2017-03-01T03:24:26.095Z,990.02
2017-03-01T03:25:06.644Z,990
2017-03-01T03:25:47.102Z,989.99
2017-03-01T03:26:27.601Z,989.95
2017-03-01T03:27:08.048Z,989.98
2017-03-01T03:27:48.549Z,990.05
2017-03-01T03:28:28.998Z,990.06
2017-03-01T03:29:09.506Z,990.08
2017-03-01T03:29:49.979Z,990.1
2017-03-01T03:30:30.514Z,990.13
2017-03-01T03:31:10.942Z,990.18
2017-03-01T03:31:51.426Z,990.18
2017-03-01T03:32:31.928Z,990.18
2017-03-01T03:33:12.455Z,990.21
2017-03-01T03:33:52.936Z,990.21
2017-03-01T03:34:33.501Z,990.2
2017-03-01T03:35:13.973Z,990.21
2017-03-01T03:35:54.492Z,990.24
2017-03-01T03:36:35.008Z,990.29
2017-03-01T03:37:15.482Z,990.33
2017-03-01T03:37:55.978Z,990.28
2017-03-01T03:38:36.550Z,990.32
2017-03-01T03:39:16.997Z,990.3
2017-03-01T03:39:57.531Z,990.4
2017-03-01T03:40:38.289Z,990.37
2017-03-01T03:41:18.757Z,990.36
2017-03-01T03:41:59.368Z,990.38
2017-03-01T03:42:39.855Z,990.35
2017-03-01T03:43:20.340Z,990.35
2017-03-01T03:44:00.912Z,990.37
2017-03-01T03:44:41.317Z,990.41
2017-03-01T03:45:21.932Z,990.42
2017-03-01T03:46:02.335Z,990.42
2017-03-01T03:46:42.829Z,990.41
2017-03-01T03:47:23.373Z,990.42
2017-03-01T03:48:03.858Z,990.42
2017-03-01T03:48:44.322Z,990.34
2017-03-01T03:49:24.842Z,990.33
2017-03-01T03:50:05.319Z,990.31
2017-03-01T03:50:45.853Z,990.4
2017-03-01T03:51:26.301Z,990.34
2017-03-01T03:52:06.778Z,990.35
2017-03-01T03:52:47.303Z,990.38
2017-03-01T03:53:27.776Z,990.37
2017-03-01T03:54:08.272Z,990.45
2017-03-01T03:54:48.777Z,990.43
2017-03-01T03:55:29.311Z,990.47
2017-03-01T03:56:09.762Z,990.45
2017-03-01T03:56:50.260Z,990.51
2017-03-01T03:57:30.792Z,990.55
2017-03-01T03:58:11.290Z,990.54
2017-03-01T03:58:51.767Z,990.59
2017-03-01T03:59:32.215Z,990.66
2017-03-01T04:00:12.757Z,990.64
2017-03-01T04:00:53.250Z,990.69
2017-03-01T04:01:33.741Z,990.68
2017-03-01T04:02:14.240Z,990.79
2017-03-01T04:02:54.708Z,990.63
2017-03-01T04:03:35.708Z,990.65
2017-03-01T04:04:16.218Z,990.54
2017-03-01T04:04:56.677Z,990.55
2017-03-01T04:05:37.170Z,990.62
2017-03-01T04:06:17.714Z,990.64
2017-03-01T04:06:58.156Z,990.74
2017-03-01T04:07:38.672Z,990.7
2017-03-01T04:08:19.134Z,990.59
2017-03-01T04:08:59.804Z,990.65
2017-03-01T04:09:40.257Z,990.71
2017-03-01T04:10:20.785Z,990.74
2017-03-01T04:11:01.230Z,990.72
2017-03-01T04:11:41.781Z,990.76
2017-03-01T04:12:22.233Z,990.75
2017-03-01T04:13:02.740Z,990.8
2017-03-01T04:13:43.278Z,990.83
2017-03-01T04:14:23.751Z,990.81
2017-03-01T04:15:04.215Z,990.9
2017-03-01T04:15:44.684Z,990.85
2017-03-01T04:16:25.184Z,990.83
2017-03-01T04:17:05.701Z,990.84
2017-03-01T04:17:46.193Z,990.84
2017-03-01T04:18:26.656Z,990.88
2017-03-01T04:19:07.179Z,990.88
2017-03-01T04:19:47.662Z,990.89
2017-03-01T04:20:28.151Z,990.91
2017-03-01T04:21:08.604Z,990.9
2017-03-01T04:21:49.102Z,990.87
2017-03-01T04:22:29.597Z,990.91
2017-03-01T04:23:10.139Z,990.94
2017-03-01T04:23:50.612Z,990.93
2017-03-01T04:24:31.143Z,990.97
2017-03-01T04:25:11.592Z,991.02
2017-03-01T04:25:52.114Z,990.95
2017-03-01T04:26:32.563Z,990.94
2017-03-01T04:27:13.048Z,990.89
2017-03-01T04:27:53.562Z,990.99
2017-03-01T04:28:34.101Z,991.01
2017-03-01T04:29:14.562Z,990.97
2017-03-01T04:29:55.036Z,990.97
2017-03-01T04:30:35.601Z,990.93
2017-03-01T04:31:16.022Z,990.96
2017-03-01T04:31:56.578Z,990.97
2017-03-01T04:32:37.006Z,991.01
2017-03-01T04:33:17.495Z,991
2017-03-01T04:33:58.037Z,991.02
2017-03-01T04:34:38.481Z,990.99
2017-03-01T04:35:18.967Z,991
2017-03-01T04:35:59.441Z,991.1
2017-03-01T04:36:39.965Z,991.11
2017-03-01T04:37:20.518Z,991.15
2017-03-01T04:38:01.013Z,991.09
2017-03-01T04:38:41.576Z,991.17
2017-03-01T04:39:22.046Z,991.07
2017-03-01T04:40:02.554Z,991.06
2017-03-01T04:40:43.054Z,991.11
2017-03-01T04:41:23.548Z,991.01
2017-03-01T04:42:04.012Z,991.06
2017-03-01T04:42:44.539Z,991
2017-03-01T04:43:25.004Z,991.04
2017-03-01T04:44:05.535Z,991.07
2017-03-01T04:44:46.024Z,991.07
2017-03-01T04:45:26.498Z,991.06
2017-03-01T04:46:06.983Z,991.06
2017-03-01T04:46:47.504Z,991.01
2017-03-01T04:47:28.017Z,991.03
2017-03-01T04:48:08.519Z,991.07
2017-03-01T04:48:48.954Z,991.01
2017-03-01T04:49:29.426Z,990.96
2017-03-01T04:50:09.949Z,991
2017-03-01T04:50:50.487Z,991.02
2017-03-01T04:51:31.013Z,991.06
2017-03-01T04:52:11.493Z,990.98
2017-03-01T04:52:52.032Z,990.97
2017-03-01T04:53:32.522Z,990.98
2017-03-01T04:54:12.955Z,990.96
2017-03-01T04:54:53.592Z,991.04
2017-03-01T04:55:34.081Z,990.97
2017-03-01T04:56:14.583Z,990.98
2017-03-01T04:56:55.089Z,990.92
2017-03-01T04:57:35.562Z,990.98
2017-03-01T04:58:16.046Z,990.93
2017-03-01T04:58:56.529Z,991
2017-03-01T04:59:37.062Z,991
2017-03-01T05:00:17.563Z,990.98
2017-03-01T05:00:58.022Z,990.91
2017-03-01T05:01:38.529Z,990.96
2017-03-01T05:02:18.971Z,990.89
2017-03-01T05:02:59.459Z,991
2017-03-01T05:03:39.965Z,990.94
2017-03-01T05:04:20.473Z,990.96
2017-03-01T05:05:00.947Z,990.92
2017-03-01T05:05:41.656Z,990.91
2017-03-01T05:06:22.148Z,990.95
2017-03-01T05:07:02.670Z,990.91
2017-03-01T05:07:43.146Z,990.92
2017-03-01T05:08:23.684Z,990.93
2017-03-01T05:09:04.227Z,990.94
2017-03-01T05:09:44.668Z,990.91
2017-03-01T05:10:25.174Z,990.95
2017-03-01T05:11:05.648Z,990.93
2017-03-01T05:11:46.211Z,990.95
2017-03-01T05:12:26.754Z,991
2017-03-01T05:13:07.206Z,990.99
2017-03-01T05:13:47.934Z,990.88
2017-03-01T05:14:28.423Z,990.98
2017-03-01T05:15:08.910Z,990.95
2017-03-01T05:15:49.406Z,990.89
2017-03-01T05:16:29.863Z,990.89
2017-03-01T05:17:10.357Z,990.81
2017-03-01T05:17:50.831Z,990.87
2017-03-01T05:18:31.372Z,991.03
2017-03-01T05:19:11.834Z,990.88
2017-03-01T05:19:52.390Z,990.97
2017-03-01T05:20:32.870Z,991.01
2017-03-01T05:21:13.316Z,991.04
2017-03-01T05:21:53.816Z,991.13
2017-03-01T05:22:34.280Z,990.98
2017-03-01T05:23:14.778Z,991.09
2017-03-01T05:23:55.309Z,991.06
2017-03-01T05:24:35.837Z,991.05
2017-03-01T05:25:16.254Z,991.02
2017-03-01T05:25:56.809Z,991.1
2017-03-01T05:26:37.322Z,991.07
2017-03-01T05:27:17.824Z,991.05
2017-03-01T05:27:58.317Z,991
2017-03-01T05:28:38.801Z,990.98
2017-03-01T05:29:19.238Z,991.04
2017-03-01T05:29:59.837Z,991.04
2017-03-01T05:30:40.323Z,990.99
2017-03-01T05:31:20.780Z,991.1
2017-03-01T05:32:01.450Z,991.09
2017-03-01T05:32:41.926Z,991.07
2017-03-01T05:33:22.429Z,991.1
2017-03-01T05:34:02.918Z,991.11
2017-03-01T05:34:43.368Z,991.05
2017-03-01T05:35:23.865Z,991.11
2017-03-01T05:36:04.398Z,991.03
2017-03-01T05:36:44.935Z,991.1
2017-03-01T05:37:25.421Z,991.04
2017-03-01T05:38:05.872Z,991.06
2017-03-01T05:38:46.652Z,991.06
2017-03-01T05:39:27.152Z,991.04
2017-03-01T05:40:07.685Z,991.06
2017-03-01T05:40:48.106Z,991.02
2017-03-01T05:41:28.589Z,991
2017-03-01T05:42:09.105Z,991.13
2017-03-01T05:42:49.630Z,991.08
2017-03-01T05:43:30.099Z,991.11
2017-03-01T05:44:10.581Z,991.13
2017-03-01T05:44:51.114Z,991.13
2017-03-01T05:45:31.581Z,991.2
2017-03-01T05:46:16.633Z,991.09
2017-03-01T05:46:57.060Z,991.18
2017-03-01T05:47:37.589Z,991.24
2017-03-01T05:48:18.294Z,991.29
2017-03-01T05:48:58.677Z,991.29
2017-03-01T05:49:39.112Z,991.33
2017-03-01T05:50:19.578Z,991.37
2017-03-01T05:51:00.102Z,991.34
2017-03-01T05:51:40.604Z,991.39
2017-03-01T05:52:21.091Z,991.4
2017-03-01T05:53:01.545Z,991.56
2017-03-01T05:53:42.040Z,991.42
2017-03-01T05:54:22.545Z,991.45
2017-03-01T05:55:03.071Z,991.33
2017-03-01T05:55:43.546Z,991.41
2017-03-01T05:56:24.045Z,991.46
2017-03-01T05:57:04.538Z,991.5
2017-03-01T05:57:45.000Z,991.51
2017-03-01T05:58:25.703Z,991.5
2017-03-01T05:59:06.282Z,991.52
2017-03-01T05:59:46.838Z,991.57
2017-03-01T06:00:27.238Z,991.6
2017-03-01T06:01:07.693Z,991.65
2017-03-01T06:01:48.200Z,991.69
2017-03-01T06:02:28.701Z,991.59
2017-03-01T06:03:09.202Z,991.56
2017-03-01T06:03:49.707Z,991.69
2017-03-01T06:04:30.148Z,991.73
2017-03-01T06:05:10.687Z,991.69
2017-03-01T06:05:51.179Z,991.73
2017-03-01T06:06:31.701Z,991.7
2017-03-01T06:07:12.170Z,991.75
2017-03-01T06:07:52.672Z,991.8
2017-03-01T06:08:33.273Z,991.77
2017-03-01T06:09:13.794Z,991.76
2017-03-01T06:09:54.315Z,991.76
2017-03-01T06:10:34.932Z,991.8
2017-03-01T06:11:15.425Z,991.82
2017-03-01T06:11:55.937Z,991.86
2017-03-01T06:12:36.578Z,991.81
2017-03-01T06:13:17.102Z,991.83
2017-03-01T06:13:57.565Z,991.78
2017-03-01T06:14:38.107Z,991.82
2017-03-01T06:15:18.661Z,991.87
2017-03-01T06:15:59.146Z,991.76
2017-03-01T06:16:39.628Z,991.97
2017-03-01T06:17:20.139Z,991.89
2017-03-01T06:18:00.645Z,991.95
2017-03-01T06:18:41.143Z,991.89
2017-03-01T06:19:21.631Z,991.98
2017-03-01T06:20:02.454Z,991.98
2017-03-01T06:20:42.953Z,991.97
2017-03-01T06:21:23.429Z,991.99
2017-03-01T06:22:03.939Z,992.03
2017-03-01T06:22:44.495Z,992.05
2017-03-01T06:23:25.129Z,991.99
2017-03-01T06:24:05.839Z,991.97
2017-03-01T06:24:46.390Z,992.01
2017-03-01T06:25:27.207Z,992.1
2017-03-01T06:26:07.410Z,992
2017-03-01T06:26:47.965Z,992.06
2017-03-01T06:27:28.519Z,992.12
2017-03-01T06:28:09.062Z,992.07
2017-03-01T06:28:49.597Z,992.11
2017-03-01T06:29:30.055Z,992.01
2017-03-01T06:30:10.820Z,992.07
2017-03-01T06:30:51.281Z,992.09
2017-03-01T06:31:31.857Z,992.13
2017-03-01T06:32:12.473Z,992.1
2017-03-01T06:32:52.940Z,992.09
2017-03-01T06:33:33.662Z,992.03
2017-03-01T06:34:14.142Z,992
2017-03-01T06:34:54.637Z,992.08
2017-03-01T06:35:35.137Z,992.11
2017-03-01T06:36:15.620Z,992.08
2017-03-01T06:36:56.253Z,992.08
2017-03-01T06:37:36.721Z,992.15
2017-03-01T06:38:17.256Z,992.13
2017-03-01T06:38:58.042Z,992.1
2017-03-01T06:39:38.702Z,992.15
2017-03-01T06:40:19.226Z,992.04
2017-03-01T06:40:59.747Z,992.05
2017-03-01T06:41:41.215Z,992.1
2017-03-01T06:42:22.010Z,992.11
2017-03-01T06:43:02.456Z,992.09
2017-03-01T06:43:45.928Z,992.16
2017-03-01T06:44:27.695Z,992.2
2017-03-01T06:45:08.224Z,992.12
2017-03-01T06:45:48.367Z,992.17
2017-03-01T06:46:28.918Z,992.26
2017-03-01T06:47:09.494Z,992.28
2017-03-01T06:47:50.048Z,992.23
2017-03-01T06:48:30.724Z,992.28
2017-03-01T06:49:11.118Z,992.26
2017-03-01T06:49:51.615Z,992.33
2017-03-01T06:50:32.164Z,992.25
2017-03-01T06:51:12.720Z,992.27
2017-03-01T06:51:53.157Z,992.31
2017-03-01T06:52:33.713Z,992.36
2017-03-01T06:53:14.315Z,992.36
2017-03-01T06:53:54.947Z,992.37
2017-03-01T06:54:35.378Z,992.35
2017-03-01T06:55:15.858Z,992.34
2017-03-01T06:55:56.350Z,992.34
2017-03-01T06:56:36.809Z,992.33
2017-03-01T06:57:17.329Z,992.36
2017-03-01T06:57:57.891Z,992.39
2017-03-01T06:58:38.425Z,992.42
2017-03-01T06:59:18.883Z,992.39
2017-03-01T06:59:59.388Z,992.45
2017-03-01T07:00:39.950Z,992.38
2017-03-01T07:01:20.413Z,992.49
2017-03-01T07:02:00.875Z,992.54
2017-03-01T07:02:41.379Z,992.48
2017-03-01T07:03:21.908Z,992.49
2017-03-01T07:04:02.466Z,992.45
2017-03-01T07:04:43.037Z,992.49
2017-03-01T07:05:23.550Z,992.47
2017-03-01T07:06:04.022Z,992.52
2017-03-01T07:06:44.442Z,992.52
2017-03-01T07:07:25.035Z,992.57
2017-03-01T07:08:05.848Z,992.6
2017-03-01T07:08:46.351Z,992.58
2017-03-01T07:09:26.798Z,992.62
2017-03-01T07:10:07.354Z,992.67
2017-03-01T07:10:47.826Z,992.61
2017-03-01T07:11:28.331Z,992.71
2017-03-01T07:12:08.868Z,992.71
2017-03-01T07:12:49.376Z,992.63
2017-03-01T07:13:29.910Z,992.61
2017-03-01T07:14:10.447Z,992.73
2017-03-01T07:14:50.904Z,992.69
2017-03-01T07:15:31.440Z,992.67
2017-03-01T07:16:11.943Z,992.73
2017-03-01T07:16:52.431Z,992.68
2017-03-01T07:17:32.975Z,992.68
2017-03-01T07:18:13.480Z,992.77
2017-03-01T07:18:54.018Z,992.73
2017-03-01T07:19:34.466Z,992.7
2017-03-01T07:20:14.926Z,992.75
2017-03-01T07:20:55.492Z,992.82
2017-03-01T07:21:36.009Z,992.83
2017-03-01T07:22:16.452Z,992.87
2017-03-01T07:22:56.978Z,992.93
2017-03-01T07:23:37.512Z,992.82
2017-03-01T07:24:17.999Z,992.84
2017-03-01T07:24:58.530Z,992.83
2017-03-01T07:25:38.968Z,992.87
2017-03-01T07:26:19.449Z,992.9
2017-03-01T07:26:59.970Z,992.88
2017-03-01T07:27:40.437Z,992.91
2017-03-01T07:28:20.959Z,993.05
2017-03-01T07:29:01.422Z,993.11
2017-03-01T07:29:41.956Z,992.96
2017-03-01T07:30:22.418Z,993.07
2017-03-01T07:31:03.516Z,993.04
2017-03-01T07:31:44.607Z,993.17
2017-03-01T07:32:24.277Z,993.14
2017-03-01T07:33:04.778Z,993.17
2017-03-01T07:33:45.309Z,993.23
2017-03-01T07:34:25.748Z,993.16
2017-03-01T07:35:06.390Z,993.12
2017-03-01T07:35:46.906Z,993.14
2017-03-01T07:36:27.525Z,993.2
2017-03-01T07:37:08.117Z,993.17
2017-03-01T07:37:48.597Z,993.21
2017-03-01T07:38:29.434Z,993.19
2017-03-01T07:39:09.996Z,993.26
2017-03-01T07:39:50.473Z,993.29
2017-03-01T07:40:30.936Z,993.3
2017-03-01T07:41:11.745Z,993.3
2017-03-01T07:41:52.280Z,993.32
2017-03-01T07:42:32.808Z,993.38
2017-03-01T07:43:13.434Z,993.35
2017-03-01T07:43:53.872Z,993.26
2017-03-01T07:44:34.380Z,993.33
2017-03-01T07:45:14.886Z,993.34
2017-03-01T07:45:55.709Z,993.33
2017-03-01T07:46:36.185Z,993.36
2017-03-01T07:47:16.698Z,993.32
2017-03-01T07:47:57.260Z,993.37
2017-03-01T07:48:37.748Z,993.41
2017-03-01T07:49:18.233Z,993.38
2017-03-01T07:49:58.738Z,993.44
2017-03-01T07:50:39.329Z,993.39
2017-03-01T07:51:19.722Z,993.42
2017-03-01T07:52:00.259Z,993.44
2017-03-01T07:52:40.838Z,993.51
2017-03-01T07:53:21.338Z,993.44
2017-03-01T07:54:01.844Z,993.48
2017-03-01T07:54:42.467Z,993.53
2017-03-01T07:55:22.899Z,993.51
2017-03-01T07:56:03.404Z,993.54
2017-03-01T07:56:43.978Z,993.49
2017-03-01T07:57:24.408Z,993.52
2017-03-01T07:58:04.937Z,993.45
2017-03-01T07:58:45.463Z,993.44
2017-03-01T07:59:25.956Z,993.45
2017-03-01T08:00:06.552Z,993.46
2017-03-01T08:00:46.917Z,993.48
2017-03-01T08:01:27.463Z,993.47
2017-03-01T08:02:07.898Z,993.48
2017-03-01T08:02:48.466Z,993.38
2017-03-01T08:03:28.943Z,993.5
2017-03-01T08:04:09.437Z,993.5
2017-03-01T08:04:49.982Z,993.44
2017-03-01T08:05:30.506Z,993.48
2017-03-01T08:06:10.966Z,993.51
2017-03-01T08:06:51.511Z,993.55
2017-03-01T08:07:32.088Z,993.54
2017-03-01T08:08:12.572Z,993.64
2017-03-01T08:08:53.110Z,993.65
2017-03-01T08:09:33.677Z,993.57
2017-03-01T08:10:14.095Z,993.67
2017-03-01T08:10:54.567Z,993.67
2017-03-01T08:11:35.041Z,993.67
2017-03-01T08:12:15.497Z,993.6
2017-03-01T08:12:56.089Z,993.62
2017-03-01T08:13:36.628Z,993.61
2017-03-01T08:14:17.106Z,993.62
2017-03-01T08:14:57.582Z,993.61
2017-03-01T08:15:38.053Z,993.62
2017-03-01T08:16:18.583Z,993.63
2017-03-01T08:16:59.099Z,993.73
2017-03-01T08:17:39.550Z,993.69
2017-03-01T08:18:20.092Z,993.68
2017-03-01T08:19:03.264Z,993.69
2017-03-01T08:19:43.726Z,993.7
2017-03-01T08:20:24.292Z,993.63
2017-03-01T08:21:04.787Z,993.66
2017-03-01T08:21:45.206Z,993.67
2017-03-01T08:22:25.686Z,993.7
2017-03-01T08:23:06.249Z,993.74
2017-03-01T08:23:46.677Z,993.85
2017-03-01T08:24:27.219Z,993.9
2017-03-01T08:25:07.700Z,993.93
2017-03-01T08:25:48.245Z,993.89
2017-03-01T08:26:28.790Z,993.78
2017-03-01T08:27:09.270Z,993.87
2017-03-01T08:27:49.710Z,993.94